createdAt,value
2022-08-28T00:00:37.953Z,14.30
2022-08-28T00:03:05.986Z,14.30
2022-08-28T00:05:34.142Z,14.20
2022-08-28T00:08:01.268Z,14.20
2022-08-28T00:10:28.777Z,14.10
2022-08-28T00:12:57.435Z,14.10
2022-08-28T00:15:31.275Z,14.10
2022-08-28T00:17:59.242Z,14.00
2022-08-28T00:20:27.632Z,13.90
2022-08-28T00:22:55.653Z,13.90
2022-08-28T00:25:25.395Z,13.90
2022-08-28T00:27:57.586Z,13.90
2022-08-28T00:30:38.077Z,13.90
2022-08-28T00:33:12.808Z,14.00
2022-08-28T00:35:41.067Z,13.90
2022-08-28T00:38:10.170Z,13.90
2022-08-28T00:40:38.340Z,13.90
2022-08-28T00:43:06.844Z,13.80
2022-08-28T00:45:39.283Z,13.80
2022-08-28T00:48:07.458Z,13.80
2022-08-28T00:51:00.314Z,13.70
2022-08-28T00:53:32.727Z,13.70
2022-08-28T00:56:02.732Z,13.70
2022-08-28T00:58:34.659Z,13.60
2022-08-28T01:01:01.640Z,13.60
2022-08-28T01:03:28.474Z,13.60
2022-08-28T01:05:55.610Z,13.60
2022-08-28T01:08:23.023Z,13.50
2022-08-28T01:10:54.420Z,13.50
2022-08-28T01:13:22.253Z,13.60
2022-08-28T01:15:51.014Z,13.50
2022-08-28T01:18:19.070Z,13.50
2022-08-28T01:20:59.128Z,13.50
2022-08-28T01:23:38.409Z,13.50
2022-08-28T01:26:10.715Z,13.50
2022-08-28T01:28:39.201Z,13.60
2022-08-28T01:31:08.820Z,13.60
2022-08-28T01:33:35.520Z,13.70
2022-08-28T01:36:02.746Z,13.60
2022-08-28T01:38:29.483Z,13.60
2022-08-28T01:40:58.101Z,13.50
2022-08-28T01:43:27.696Z,13.50
2022-08-28T01:46:01.262Z,13.50
2022-08-28T01:48:30.978Z,13.50
2022-08-28T01:50:57.767Z,13.50
2022-08-28T01:53:32.133Z,13.50
2022-08-28T01:56:01.429Z,13.50
2022-08-28T01:58:30.154Z,13.50
2022-08-28T02:00:57.411Z,13.50
2022-08-28T02:03:24.521Z,13.50
2022-08-28T02:05:52.514Z,13.40
2022-08-28T02:08:19.319Z,13.30
2022-08-28T02:10:46.217Z,13.30
2022-08-28T02:13:13.584Z,13.20
2022-08-28T02:15:42.823Z,13.20
2022-08-28T02:18:09.873Z,13.20
2022-08-28T02:20:37.157Z,13.10
2022-08-28T02:23:04.443Z,13.10
2022-08-28T02:25:31.187Z,13.10
2022-08-28T02:27:58.040Z,13.10
2022-08-28T02:30:25.205Z,13.10
2022-08-28T02:32:52.006Z,13.10
2022-08-28T02:35:21.163Z,13.10
2022-08-28T02:37:49.414Z,13.10
2022-08-28T02:40:19.594Z,13.10
2022-08-28T02:42:46.396Z,13.10
2022-08-28T02:45:14.711Z,13.10
2022-08-28T02:47:43.700Z,13.20
2022-08-28T02:50:14.001Z,13.20
2022-08-28T02:52:41.384Z,13.20
2022-08-28T02:55:09.377Z,13.20
2022-08-28T02:57:36.174Z,13.20
2022-08-28T03:00:06.662Z,13.30
2022-08-28T03:02:33.482Z,13.40
2022-08-28T03:05:00.469Z,13.40
2022-08-28T03:07:29.301Z,13.40
2022-08-28T03:09:56.281Z,13.50
2022-08-28T03:12:24.353Z,13.60
2022-08-28T03:14:54.545Z,13.60
2022-08-28T03:17:22.111Z,13.60
2022-08-28T03:19:50.072Z,13.60
2022-08-28T03:22:17.909Z,13.60
2022-08-28T03:24:44.991Z,13.70
2022-08-28T03:27:11.722Z,13.60
2022-08-28T03:29:38.554Z,13.70
2022-08-28T03:32:05.357Z,13.70
2022-08-28T03:34:33.510Z,13.70
2022-08-28T03:37:01.235Z,13.70
2022-08-28T03:39:27.954Z,13.70
2022-08-28T03:41:54.949Z,13.60
2022-08-28T03:44:21.970Z,13.60
2022-08-28T03:46:48.708Z,13.60
2022-08-28T03:49:15.936Z,13.60
2022-08-28T03:51:43.857Z,13.60
2022-08-28T03:54:10.766Z,13.50
2022-08-28T03:56:37.497Z,13.50
2022-08-28T03:59:05.332Z,13.60
2022-08-28T04:01:33.492Z,13.50
2022-08-28T04:04:00.445Z,13.50
2022-08-28T04:06:27.972Z,13.40
2022-08-28T04:08:55.357Z,13.40
2022-08-28T04:11:27.063Z,13.40
2022-08-28T04:13:53.818Z,13.40
2022-08-28T04:16:20.657Z,13.50
2022-08-28T04:18:48.947Z,13.50
2022-08-28T04:21:19.332Z,13.50
2022-08-28T04:23:47.162Z,13.60
2022-08-28T04:26:20.579Z,13.60
2022-08-28T04:28:48.265Z,13.60
2022-08-28T04:31:15.798Z,13.60
2022-08-28T04:33:43.308Z,13.60
2022-08-28T04:36:16.297Z,13.60
2022-08-28T04:38:44.275Z,13.60
2022-08-28T04:41:13.648Z,13.60
2022-08-28T04:43:40.353Z,13.60
2022-08-28T04:46:09.935Z,13.70
2022-08-28T04:48:37.498Z,13.70
2022-08-28T04:51:09.372Z,13.80
2022-08-28T04:53:37.020Z,13.80
2022-08-28T04:56:06.096Z,13.80
2022-08-28T04:58:34.267Z,13.80
2022-08-28T05:01:07.630Z,13.80
2022-08-28T05:03:34.493Z,13.90
2022-08-28T05:06:01.566Z,13.90
2022-08-28T05:08:29.524Z,14.00
2022-08-28T05:10:57.970Z,14.00
2022-08-28T05:13:25.470Z,14.00
2022-08-28T05:15:52.658Z,14.00
2022-08-28T05:18:22.404Z,14.10
2022-08-28T05:20:49.256Z,14.10
2022-08-28T05:23:16.821Z,14.10
2022-08-28T05:25:46.448Z,14.10
2022-08-28T05:28:14.635Z,14.20
2022-08-28T05:30:42.261Z,14.20
2022-08-28T05:33:10.541Z,14.30
2022-08-28T05:35:39.045Z,14.30
2022-08-28T05:38:06.829Z,14.40
2022-08-28T05:40:34.361Z,14.50
2022-08-28T05:43:01.078Z,14.60
2022-08-28T05:45:27.762Z,14.60
2022-08-28T05:47:54.575Z,14.70
2022-08-28T05:50:21.440Z,14.70
2022-08-28T05:52:48.144Z,14.80
2022-08-28T05:55:14.943Z,14.90
2022-08-28T05:57:42.209Z,14.90
2022-08-28T06:00:12.920Z,15.00
2022-08-28T06:02:42.636Z,15.10
2022-08-28T06:05:12.950Z,15.10
2022-08-28T06:07:41.030Z,15.10
2022-08-28T06:10:10.658Z,15.10
2022-08-28T06:12:37.844Z,15.20
2022-08-28T06:15:05.910Z,15.20
2022-08-28T06:17:32.708Z,15.20
2022-08-28T06:19:59.392Z,15.30
2022-08-28T06:22:26.086Z,15.40
2022-08-28T06:24:53.915Z,15.40
2022-08-28T06:27:20.706Z,15.50
2022-08-28T06:29:47.497Z,15.70
2022-08-28T06:32:14.251Z,15.80
2022-08-28T06:34:41.683Z,15.90
2022-08-28T06:37:09.796Z,15.90
2022-08-28T06:39:36.563Z,16.00
2022-08-28T06:42:03.850Z,16.20
2022-08-28T06:44:32.149Z,16.30
2022-08-28T06:46:59.032Z,16.40
2022-08-28T06:49:25.766Z,16.90
2022-08-28T06:51:52.708Z,17.10
2022-08-28T06:54:22.629Z,17.10
2022-08-28T06:56:50.019Z,17.10
2022-08-28T06:59:16.690Z,17.20
2022-08-28T07:01:43.463Z,17.30
2022-08-28T07:04:12.224Z,17.50
2022-08-28T07:06:41.366Z,17.50
2022-08-28T07:09:11.246Z,17.50
2022-08-28T07:11:39.044Z,17.50
2022-08-28T07:14:06.757Z,17.60
2022-08-28T07:16:38.308Z,17.70
2022-08-28T07:19:05.806Z,18.00
2022-08-28T07:21:38.176Z,18.10
2022-08-28T07:24:07.454Z,18.40
2022-08-28T07:26:35.755Z,18.60
2022-08-28T07:29:10.138Z,18.70
2022-08-28T07:31:42.930Z,18.70
2022-08-28T07:34:10.432Z,18.80
2022-08-28T07:36:37.612Z,19.20
2022-08-28T07:39:05.246Z,19.60
2022-08-28T07:41:35.283Z,19.70
2022-08-28T07:44:20.960Z,19.80
2022-08-28T07:46:47.781Z,20.00
2022-08-28T07:49:18.278Z,20.00
2022-08-28T07:51:46.900Z,20.10
2022-08-28T07:54:17.923Z,20.10
2022-08-28T07:56:45.499Z,20.60
2022-08-28T07:59:13.950Z,20.70
2022-08-28T08:01:46.595Z,20.40
2022-08-28T08:04:15.976Z,20.30
2022-08-28T08:06:44.022Z,20.10
2022-08-28T08:09:13.773Z,20.10
2022-08-28T08:11:41.156Z,20.00
2022-08-28T08:14:08.664Z,20.40
2022-08-28T08:16:38.907Z,20.80
2022-08-28T08:19:09.595Z,21.10
2022-08-28T08:21:37.232Z,21.30
2022-08-28T08:24:04.125Z,21.80
2022-08-28T08:26:30.874Z,22.40
2022-08-28T08:28:58.051Z,23.40
2022-08-28T08:31:32.397Z,23.80
2022-08-28T08:34:02.113Z,24.30
2022-08-28T08:36:30.962Z,23.90
2022-08-28T08:39:00.354Z,24.00
2022-08-28T08:41:37.504Z,24.40
2022-08-28T08:44:36.546Z,24.90
2022-08-28T08:47:15.780Z,24.60
2022-08-28T08:49:58.455Z,24.80
2022-08-28T08:52:46.647Z,24.40
2022-08-28T08:55:31.368Z,24.90
2022-08-28T08:58:09.499Z,24.90
2022-08-28T09:00:46.360Z,24.60
2022-08-28T09:03:25.164Z,24.20
2022-08-28T09:05:57.671Z,24.00
2022-08-28T09:08:36.776Z,23.50
2022-08-28T09:11:36.645Z,22.40
2022-08-28T09:14:26.932Z,22.10
2022-08-28T09:16:57.725Z,23.10
2022-08-28T09:19:24.429Z,23.80
2022-08-28T09:21:52.272Z,24.50
2022-08-28T09:24:33.260Z,25.10
2022-08-28T09:27:09.904Z,25.10
2022-08-28T09:29:44.690Z,25.00
2022-08-28T09:32:31.825Z,25.00
2022-08-28T09:35:02.682Z,24.70
2022-08-28T09:37:33.593Z,24.50
2022-08-28T09:40:15.554Z,24.00
2022-08-28T09:43:28.710Z,23.80
2022-08-28T09:46:01.662Z,23.70
2022-08-28T09:48:37.745Z,24.10
2022-08-28T09:51:28.105Z,24.50
2022-08-28T09:53:54.781Z,25.20
2022-08-28T09:56:24.710Z,24.50
2022-08-28T09:59:02.735Z,23.80
2022-08-28T10:01:39.175Z,23.10
2022-08-28T10:04:26.917Z,23.30
2022-08-28T10:07:08.327Z,23.80
2022-08-28T10:09:57.169Z,24.30
2022-08-28T10:12:41.262Z,24.80
2022-08-28T10:15:29.692Z,24.70
2022-08-28T10:18:22.741Z,25.10
2022-08-28T10:21:12.616Z,25.70
2022-08-28T10:23:59.248Z,25.60
2022-08-28T10:26:50.373Z,25.50
2022-08-28T10:29:32.728Z,25.80
2022-08-28T10:32:37.182Z,25.50
2022-08-28T10:35:42.444Z,24.60
2022-08-28T10:38:17.367Z,24.70
2022-08-28T10:40:59.530Z,24.30
2022-08-28T10:43:31.341Z,25.00
2022-08-28T10:46:03.691Z,24.50
2022-08-28T10:48:40.048Z,23.40
2022-08-28T10:51:16.274Z,23.20
2022-08-28T10:53:55.780Z,23.80
2022-08-28T10:56:28.622Z,24.50
2022-08-28T10:58:59.064Z,24.80
2022-08-28T11:01:28.085Z,24.90
2022-08-28T11:03:57.040Z,25.10
2022-08-28T11:06:52.016Z,24.70
2022-08-28T11:09:35.665Z,24.10
2022-08-28T11:12:07.479Z,24.20
2022-08-28T11:14:47.598Z,24.80
2022-08-28T11:17:25.263Z,24.40
2022-08-28T11:20:10.726Z,25.20
2022-08-28T11:22:50.025Z,25.60
2022-08-28T11:25:32.743Z,25.50
2022-08-28T11:28:24.521Z,25.10
2022-08-28T11:31:06.491Z,24.30
2022-08-28T11:33:50.695Z,24.20
2022-08-28T11:36:20.421Z,24.80
2022-08-28T11:38:53.296Z,24.70
2022-08-28T11:41:26.542Z,24.50
2022-08-28T11:44:11.658Z,24.30
2022-08-28T11:46:44.392Z,24.10
2022-08-28T11:49:26.518Z,24.40
2022-08-28T11:52:34.659Z,24.30
2022-08-28T11:55:13.352Z,24.30
2022-08-28T11:57:54.164Z,24.60
2022-08-28T12:00:59.871Z,24.00
2022-08-28T12:03:51.870Z,24.20
2022-08-28T12:06:44.396Z,24.80
2022-08-28T12:09:36.760Z,25.60
2022-08-28T12:12:09.133Z,26.60
2022-08-28T12:14:35.977Z,26.60
2022-08-28T12:17:15.125Z,26.00
2022-08-28T12:19:52.480Z,25.60
2022-08-28T12:22:26.357Z,26.00
2022-08-28T12:24:57.905Z,26.00
2022-08-28T12:27:25.735Z,26.40
2022-08-28T12:29:57.703Z,27.30
2022-08-28T12:32:38.206Z,27.20
2022-08-28T12:35:17.440Z,26.70
2022-08-28T12:37:58.585Z,26.50
2022-08-28T12:40:29.942Z,26.30
2022-08-28T12:43:11.213Z,26.00
2022-08-28T12:45:50.439Z,27.10
2022-08-28T12:48:48.379Z,27.40
2022-08-28T12:51:23.067Z,27.40
2022-08-28T12:53:58.940Z,27.30
2022-08-28T12:56:30.081Z,27.40
2022-08-28T12:59:16.710Z,27.70
2022-08-28T13:01:44.524Z,27.70
2022-08-28T13:04:41.945Z,28.20
2022-08-28T13:07:16.046Z,29.20
2022-08-28T13:09:51.373Z,28.90
2022-08-28T13:12:54.654Z,28.70
2022-08-28T13:15:13.025Z,28.50
2022-08-28T13:17:52.509Z,27.80
2022-08-28T13:20:25.261Z,28.80
2022-08-28T13:22:52.096Z,29.10
2022-08-28T13:25:25.100Z,29.50
2022-08-28T13:28:17.646Z,29.40
2022-08-28T13:30:58.967Z,29.80
2022-08-28T13:33:27.134Z,29.80
2022-08-28T13:35:54.819Z,29.60
2022-08-28T13:38:25.176Z,29.90
2022-08-28T13:40:58.434Z,30.00
2022-08-28T13:43:29.022Z,30.00
2022-08-28T13:45:56.105Z,29.80
2022-08-28T13:48:27.499Z,29.60
2022-08-28T13:51:10.493Z,28.50
2022-08-28T13:54:02.285Z,28.90
2022-08-28T13:56:36.479Z,28.30
2022-08-28T13:59:04.028Z,28.40
2022-08-28T14:01:49.999Z,28.20
2022-08-28T14:04:16.842Z,28.10
2022-08-28T14:06:44.294Z,27.70
2022-08-28T14:09:17.655Z,28.00
2022-08-28T14:11:46.217Z,28.30
2022-08-28T14:14:13.552Z,27.70
2022-08-28T14:16:40.606Z,28.00
2022-08-28T14:19:07.721Z,28.10
2022-08-28T14:21:40.220Z,27.80
2022-08-28T14:24:07.960Z,26.60
2022-08-28T14:26:34.756Z,26.70
2022-08-28T14:29:04.006Z,27.40
2022-08-28T14:31:31.066Z,28.10
2022-08-28T14:33:58.474Z,28.40
2022-08-28T14:36:27.828Z,28.50
2022-08-28T14:38:55.828Z,28.50
2022-08-28T14:41:24.224Z,28.90
2022-08-28T14:43:51.335Z,28.60
2022-08-28T14:46:28.581Z,28.30
2022-08-28T14:49:00.824Z,28.20
2022-08-28T14:51:32.351Z,28.60
2022-08-28T14:54:00.463Z,28.20
2022-08-28T14:56:28.995Z,28.30
2022-08-28T14:58:58.988Z,28.40
2022-08-28T15:01:40.246Z,28.80
2022-08-28T15:04:11.767Z,28.60
2022-08-28T15:06:40.476Z,28.40
2022-08-28T15:09:07.194Z,28.80
2022-08-28T15:11:35.383Z,28.70
2022-08-28T15:14:02.407Z,29.00
2022-08-28T15:16:31.805Z,29.10
2022-08-28T15:18:59.609Z,28.20
2022-08-28T15:21:26.280Z,27.60
2022-08-28T15:23:55.463Z,27.20
2022-08-28T15:26:23.727Z,26.80
2022-08-28T15:28:51.195Z,27.60
2022-08-28T15:31:18.680Z,28.50
2022-08-28T15:33:45.649Z,29.10
2022-08-28T15:36:12.905Z,29.20
2022-08-28T15:38:58.451Z,28.90
2022-08-28T15:41:25.343Z,28.50
2022-08-28T15:43:59.977Z,28.60
2022-08-28T15:46:29.102Z,28.00
2022-08-28T15:48:56.703Z,27.50
2022-08-28T15:51:26.066Z,26.80
2022-08-28T15:53:53.327Z,26.40
2022-08-28T15:56:20.550Z,27.00
2022-08-28T15:58:47.422Z,26.70
2022-08-28T16:01:14.541Z,27.10
2022-08-28T16:03:41.408Z,27.80
2022-08-28T16:06:17.354Z,27.80
2022-08-28T16:08:44.738Z,27.60
2022-08-28T16:11:16.145Z,27.80
2022-08-28T16:13:43.042Z,27.70
2022-08-28T16:16:10.123Z,27.00
2022-08-28T16:18:39.547Z,26.60
2022-08-28T16:21:06.861Z,26.60
2022-08-28T16:23:34.704Z,26.40
2022-08-28T16:26:03.452Z,25.90
2022-08-28T16:28:31.917Z,25.30
2022-08-28T16:30:58.759Z,24.60
2022-08-28T16:33:26.926Z,24.70
2022-08-28T16:35:56.520Z,24.50
2022-08-28T16:38:23.882Z,24.10
2022-08-28T16:40:50.682Z,23.90
2022-08-28T16:43:17.475Z,23.80
2022-08-28T16:45:46.070Z,23.30
2022-08-28T16:48:14.228Z,23.30
2022-08-28T16:50:49.351Z,23.10
2022-08-28T16:53:20.070Z,23.10
2022-08-28T16:55:53.777Z,23.00
2022-08-28T16:58:20.704Z,22.90
2022-08-28T17:00:52.896Z,22.80
2022-08-28T17:03:26.320Z,22.70
2022-08-28T17:05:55.030Z,22.60
2022-08-28T17:08:22.288Z,22.40
2022-08-28T17:10:50.135Z,22.30
2022-08-28T17:13:16.894Z,22.20
2022-08-28T17:15:43.913Z,22.10
2022-08-28T17:18:10.733Z,22.00
2022-08-28T17:20:56.191Z,21.90
2022-08-28T17:23:23.144Z,21.90
2022-08-28T17:25:49.843Z,21.70
2022-08-28T17:28:16.546Z,21.60
2022-08-28T17:30:43.799Z,21.50
2022-08-28T17:33:10.467Z,21.50
2022-08-28T17:35:40.321Z,21.40
2022-08-28T17:38:09.040Z,21.40
2022-08-28T17:40:35.849Z,21.30
2022-08-28T17:43:03.572Z,21.20
2022-08-28T17:45:30.250Z,21.10
2022-08-28T17:47:57.012Z,21.00
2022-08-28T17:50:24.174Z,20.90
2022-08-28T17:52:51.546Z,20.80
2022-08-28T17:55:19.199Z,20.80
2022-08-28T17:57:45.919Z,20.70
2022-08-28T18:00:16.411Z,20.60
2022-08-28T18:02:44.572Z,20.50
2022-08-28T18:05:13.513Z,20.40
2022-08-28T18:07:40.389Z,20.20
2022-08-28T18:10:09.434Z,20.20
2022-08-28T18:12:36.174Z,20.10
2022-08-28T18:15:03.897Z,20.00
2022-08-28T18:17:30.672Z,19.90
2022-08-28T18:19:57.516Z,19.80
2022-08-28T18:22:29.021Z,19.80
2022-08-28T18:24:56.479Z,19.70
2022-08-28T18:27:26.409Z,19.60
2022-08-28T18:29:53.138Z,19.50
2022-08-28T18:32:19.966Z,19.40
2022-08-28T18:34:46.671Z,19.30
2022-08-28T18:37:13.436Z,19.20
2022-08-28T18:39:40.398Z,19.10
2022-08-28T18:42:09.501Z,19.00
2022-08-28T18:44:36.268Z,19.00
2022-08-28T18:47:03.037Z,18.90
2022-08-28T18:49:29.868Z,18.80
2022-08-28T18:51:56.858Z,18.70
2022-08-28T18:54:23.623Z,18.60
2022-08-28T18:56:50.573Z,18.50
2022-08-28T18:59:18.185Z,18.40
2022-08-28T19:01:45.022Z,18.40
2022-08-28T19:04:11.868Z,18.30
2022-08-28T19:07:09.485Z,18.30
2022-08-28T19:09:36.281Z,18.20
2022-08-28T19:12:03.514Z,18.10
2022-08-28T19:14:30.645Z,18.00
2022-08-28T19:16:57.453Z,18.00
2022-08-28T19:19:24.605Z,18.00
2022-08-28T19:21:51.740Z,17.90
2022-08-28T19:24:19.310Z,17.90
2022-08-28T19:26:46.399Z,17.80
2022-08-28T19:29:13.124Z,17.80
2022-08-28T19:31:40.017Z,17.70
2022-08-28T19:34:11.264Z,17.70
2022-08-28T19:36:39.046Z,17.70
2022-08-28T19:39:06.909Z,17.60
2022-08-28T19:41:34.612Z,17.50
2022-08-28T19:44:01.400Z,17.60
2022-08-28T19:46:28.227Z,17.30
2022-08-28T19:48:56.375Z,17.50
2022-08-28T19:51:24.251Z,17.40
2022-08-28T19:53:58.376Z,17.30
2022-08-28T19:56:31.445Z,17.30
2022-08-28T19:59:00.379Z,17.20
2022-08-28T20:01:29.737Z,17.20
2022-08-28T20:03:58.159Z,17.20
2022-08-28T20:06:25.089Z,17.10
2022-08-28T20:08:51.847Z,17.00
2022-08-28T20:11:24.748Z,17.10
2022-08-28T20:13:56.564Z,17.00
2022-08-28T20:16:27.964Z,16.90
2022-08-28T20:18:57.627Z,16.70
2022-08-28T20:21:36.705Z,16.60
2022-08-28T20:24:04.967Z,16.50
2022-08-28T20:26:31.660Z,16.40
2022-08-28T20:28:58.353Z,16.30
2022-08-28T20:31:25.638Z,16.20
2022-08-28T20:33:52.487Z,16.10
2022-08-28T20:36:21.011Z,16.10
2022-08-28T20:38:48.220Z,15.90
2022-08-28T20:41:18.225Z,15.80
2022-08-28T20:43:45.958Z,15.80
2022-08-28T20:46:16.839Z,15.70
2022-08-28T20:48:44.571Z,15.60
2022-08-28T20:51:11.912Z,15.40
2022-08-28T20:53:39.396Z,15.60
2022-08-28T20:56:09.373Z,15.50
2022-08-28T20:58:37.383Z,15.50
2022-08-28T21:01:14.846Z,15.50
2022-08-28T21:04:02.605Z,15.50
2022-08-28T21:10:17.956Z,15.50
2022-08-28T21:12:53.916Z,15.40
2022-08-28T21:13:05.301Z,15.50
2022-08-28T21:20:06.561Z,15.40
2022-08-28T21:22:48.474Z,15.10
2022-08-28T21:25:28.027Z,15.20
2022-08-28T21:28:04.042Z,15.10
2022-08-28T21:30:31.280Z,15.10
2022-08-28T21:32:58.086Z,15.20
2022-08-28T21:35:24.927Z,15.20
2022-08-28T21:37:52.263Z,15.10
2022-08-28T21:40:19.484Z,15.00
2022-08-28T21:42:46.644Z,14.90
2022-08-28T21:45:13.556Z,14.90
2022-08-28T21:47:41.895Z,14.90
2022-08-28T21:50:10.937Z,14.80
2022-08-28T21:52:37.766Z,14.70
2022-08-28T21:55:09.172Z,14.70
2022-08-28T21:57:35.994Z,14.70
2022-08-28T22:00:04.999Z,14.70
2022-08-28T22:02:33.209Z,14.60
2022-08-28T22:04:59.982Z,14.60
2022-08-28T22:07:26.661Z,14.60
2022-08-28T22:09:53.354Z,14.60
2022-08-28T22:12:21.233Z,14.60
2022-08-28T22:14:48.026Z,14.60
2022-08-28T22:17:15.283Z,14.70
2022-08-28T22:19:42.127Z,14.70
2022-08-28T22:22:31.754Z,14.60
2022-08-28T22:24:58.554Z,14.60
2022-08-28T22:27:25.333Z,14.60
2022-08-28T22:29:52.044Z,14.60
2022-08-28T22:32:19.907Z,14.50
2022-08-28T22:34:46.629Z,14.50
2022-08-28T22:37:13.904Z,14.40
2022-08-28T22:39:42.255Z,14.30
2022-08-28T22:42:09.860Z,14.30
2022-08-28T22:44:38.359Z,14.20
2022-08-28T22:47:05.815Z,14.10
2022-08-28T22:49:32.543Z,14.00
2022-08-28T22:51:59.233Z,14.10
2022-08-28T22:54:26.488Z,14.00
2022-08-28T22:56:53.219Z,13.80
2022-08-28T22:59:19.956Z,13.70
2022-08-28T23:01:47.671Z,13.60
2022-08-28T23:04:14.474Z,13.60
2022-08-28T23:06:41.351Z,13.70
2022-08-28T23:09:08.612Z,13.70
2022-08-28T23:11:36.436Z,13.70
2022-08-28T23:14:04.646Z,13.70
2022-08-28T23:16:31.415Z,13.70
2022-08-28T23:19:09.217Z,13.70
2022-08-28T23:21:40.205Z,13.60
2022-08-28T23:24:15.916Z,13.60
2022-08-28T23:26:43.415Z,13.70
2022-08-28T23:29:11.671Z,13.60
2022-08-28T23:31:39.376Z,13.50
2022-08-28T23:34:06.338Z,13.50
2022-08-28T23:36:35.688Z,13.50
2022-08-28T23:39:04.200Z,13.40
2022-08-28T23:41:32.454Z,13.40
2022-08-28T23:43:59.455Z,13.30
2022-08-28T23:46:26.246Z,13.20
2022-08-28T23:48:53.027Z,13.30
2022-08-28T23:51:21.638Z,13.20
2022-08-28T23:53:48.735Z,13.10
2022-08-28T23:56:16.858Z,13.10
2022-08-28T23:58:44.458Z,13.10
